sensor_id;sensor_type;location;lat;lon;timestamp;P1;durP1;ratioP1;P2;durP2;ratioP2
36747;SDS011;22716;51.556;5.080;2023-09-30T00:00:11;16.35;;;9.48;;
36747;SDS011;22716;51.556;5.080;2023-09-30T00:02:40;14.47;;;8.60;;
36747;SDS011;22716;51.556;5.080;2023-09-30T00:05:09;11.80;;;8.23;;
36747;SDS011;22716;51.556;5.080;2023-09-30T00:07:40;18.70;;;8.60;;
36747;SDS011;22716;51.556;5.080;2023-09-30T00:10:11;13.87;;;7.90;;
36747;SDS011;22716;51.556;5.080;2023-09-30T00:12:40;13.80;;;8.47;;
36747;SDS011;22716;51.556;5.080;2023-09-30T00:15:09;14.90;;;8.80;;
36747;SDS011;22716;51.556;5.080;2023-09-30T00:17:38;16.13;;;8.37;;
36747;SDS011;22716;51.556;5.080;2023-09-30T00:20:07;12.70;;;7.80;;
36747;SDS011;22716;51.556;5.080;2023-09-30T00:22:40;15.53;;;7.77;;
36747;SDS011;22716;51.556;5.080;2023-09-30T00:25:11;12.00;;;8.20;;
36747;SDS011;22716;51.556;5.080;2023-09-30T00:27:39;12.87;;;7.67;;
36747;SDS011;22716;51.556;5.080;2023-09-30T00:30:08;13.70;;;9.47;;
36747;SDS011;22716;51.556;5.080;2023-09-30T00:32:38;9.97;;;7.07;;
36747;SDS011;22716;51.556;5.080;2023-09-30T00:35:07;12.67;;;7.67;;
36747;SDS011;22716;51.556;5.080;2023-09-30T00:37:37;12.80;;;8.02;;
36747;SDS011;22716;51.556;5.080;2023-09-30T00:40:06;14.63;;;7.27;;
36747;SDS011;22716;51.556;5.080;2023-09-30T00:42:40;14.13;;;8.40;;
36747;SDS011;22716;51.556;5.080;2023-09-30T00:45:09;18.20;;;8.90;;
36747;SDS011;22716;51.556;5.080;2023-09-30T00:47:38;16.97;;;7.80;;
36747;SDS011;22716;51.556;5.080;2023-09-30T00:50:09;18.87;;;8.27;;
36747;SDS011;22716;51.556;5.080;2023-09-30T00:52:38;17.40;;;8.93;;
36747;SDS011;22716;51.556;5.080;2023-09-30T00:55:09;12.67;;;9.00;;
36747;SDS011;22716;51.556;5.080;2023-09-30T00:57:40;11.60;;;7.63;;
36747;SDS011;22716;51.556;5.080;2023-09-30T01:00:10;10.07;;;6.78;;
36747;SDS011;22716;51.556;5.080;2023-09-30T01:02:40;11.63;;;6.80;;
36747;SDS011;22716;51.556;5.080;2023-09-30T01:05:09;12.20;;;8.13;;
36747;SDS011;22716;51.556;5.080;2023-09-30T01:07:38;16.70;;;7.70;;
36747;SDS011;22716;51.556;5.080;2023-09-30T01:10:07;10.50;;;8.33;;
36747;SDS011;22716;51.556;5.080;2023-09-30T01:12:36;11.63;;;6.70;;
36747;SDS011;22716;51.556;5.080;2023-09-30T01:15:08;17.20;;;9.33;;
36747;SDS011;22716;51.556;5.080;2023-09-30T01:17:37;12.67;;;8.13;;
36747;SDS011;22716;51.556;5.080;2023-09-30T01:20:06;11.35;;;7.97;;
36747;SDS011;22716;51.556;5.080;2023-09-30T01:22:39;15.70;;;7.83;;
36747;SDS011;22716;51.556;5.080;2023-09-30T01:25:10;15.82;;;8.07;;
36747;SDS011;22716;51.556;5.080;2023-09-30T01:27:39;15.70;;;8.93;;
36747;SDS011;22716;51.556;5.080;2023-09-30T01:30:08;13.85;;;8.82;;
36747;SDS011;22716;51.556;5.080;2023-09-30T01:32:39;17.47;;;7.57;;
36747;SDS011;22716;51.556;5.080;2023-09-30T01:35:08;12.63;;;8.40;;
36747;SDS011;22716;51.556;5.080;2023-09-30T01:37:40;13.05;;;8.32;;
36747;SDS011;22716;51.556;5.080;2023-09-30T01:40:09;14.27;;;9.10;;
36747;SDS011;22716;51.556;5.080;2023-09-30T01:42:38;16.17;;;8.57;;
36747;SDS011;22716;51.556;5.080;2023-09-30T01:45:08;14.47;;;8.00;;
36747;SDS011;22716;51.556;5.080;2023-09-30T01:47:38;10.20;;;7.83;;
36747;SDS011;22716;51.556;5.080;2023-09-30T01:50:07;16.35;;;8.02;;
36747;SDS011;22716;51.556;5.080;2023-09-30T01:52:36;14.87;;;8.83;;
36747;SDS011;22716;51.556;5.080;2023-09-30T01:55:08;17.97;;;8.97;;
36747;SDS011;22716;51.556;5.080;2023-09-30T01:57:37;18.90;;;9.40;;
36747;SDS011;22716;51.556;5.080;2023-09-30T02:00:06;14.33;;;8.00;;
36747;SDS011;22716;51.556;5.080;2023-09-30T02:02:36;13.13;;;9.07;;
36747;SDS011;22716;51.556;5.080;2023-09-30T02:05:02;16.13;;;9.00;;
36747;SDS011;22716;51.556;5.080;2023-09-30T02:07:33;13.27;;;8.57;;
36747;SDS011;22716;51.556;5.080;2023-09-30T02:10:06;10.23;;;7.50;;
36747;SDS011;22716;51.556;5.080;2023-09-30T02:12:36;16.40;;;8.23;;
36747;SDS011;22716;51.556;5.080;2023-09-30T02:15:05;13.82;;;8.88;;
36747;SDS011;22716;51.556;5.080;2023-09-30T02:17:35;18.23;;;8.67;;
36747;SDS011;22716;51.556;5.080;2023-09-30T02:20:04;13.27;;;7.83;;
36747;SDS011;22716;51.556;5.080;2023-09-30T02:22:38;16.27;;;9.33;;
36747;SDS011;22716;51.556;5.080;2023-09-30T02:25:10;17.93;;;10.50;;
36747;SDS011;22716;51.556;5.080;2023-09-30T02:27:41;12.05;;;8.15;;
36747;SDS011;22716;51.556;5.080;2023-09-30T02:30:11;12.00;;;8.17;;
36747;SDS011;22716;51.556;5.080;2023-09-30T02:32:41;17.97;;;9.57;;
36747;SDS011;22716;51.556;5.080;2023-09-30T02:35:11;15.43;;;9.10;;
36747;SDS011;22716;51.556;5.080;2023-09-30T02:37:40;20.60;;;10.53;;
36747;SDS011;22716;51.556;5.080;2023-09-30T02:40:12;18.10;;;10.17;;
36747;SDS011;22716;51.556;5.080;2023-09-30T02:42:42;15.03;;;8.40;;
36747;SDS011;22716;51.556;5.080;2023-09-30T02:45:11;14.53;;;8.97;;
36747;SDS011;22716;51.556;5.080;2023-09-30T02:47:42;15.35;;;9.70;;
36747;SDS011;22716;51.556;5.080;2023-09-30T02:50:12;14.70;;;8.10;;
36747;SDS011;22716;51.556;5.080;2023-09-30T02:52:40;19.90;;;9.53;;
36747;SDS011;22716;51.556;5.080;2023-09-30T02:55:12;15.63;;;8.97;;
36747;SDS011;22716;51.556;5.080;2023-09-30T02:57:41;17.58;;;9.57;;
36747;SDS011;22716;51.556;5.080;2023-09-30T03:00:12;15.77;;;8.88;;
36747;SDS011;22716;51.556;5.080;2023-09-30T03:02:49;12.27;;;8.87;;
36747;SDS011;22716;51.556;5.080;2023-09-30T03:05:19;16.57;;;9.40;;
36747;SDS011;22716;51.556;5.080;2023-09-30T03:07:48;13.87;;;9.27;;
36747;SDS011;22716;51.556;5.080;2023-09-30T03:10:21;14.83;;;8.77;;
36747;SDS011;22716;51.556;5.080;2023-09-30T03:12:52;16.97;;;9.27;;
36747;SDS011;22716;51.556;5.080;2023-09-30T03:15:21;20.43;;;10.20;;
36747;SDS011;22716;51.556;5.080;2023-09-30T03:17:51;22.57;;;10.97;;
36747;SDS011;22716;51.556;5.080;2023-09-30T03:20:21;17.67;;;9.43;;
36747;SDS011;22716;51.556;5.080;2023-09-30T03:22:50;15.63;;;9.90;;
36747;SDS011;22716;51.556;5.080;2023-09-30T03:25:22;17.60;;;10.65;;
36747;SDS011;22716;51.556;5.080;2023-09-30T03:27:51;18.50;;;10.27;;
36747;SDS011;22716;51.556;5.080;2023-09-30T03:30:20;15.30;;;10.67;;
36747;SDS011;22716;51.556;5.080;2023-09-30T03:32:49;17.73;;;8.93;;
36747;SDS011;22716;51.556;5.080;2023-09-30T03:35:18;16.73;;;10.40;;
36747;SDS011;22716;51.556;5.080;2023-09-30T03:37:47;14.55;;;10.07;;
36747;SDS011;22716;51.556;5.080;2023-09-30T03:40:16;15.80;;;10.60;;
36747;SDS011;22716;51.556;5.080;2023-09-30T03:42:55;15.80;;;11.13;;
36747;SDS011;22716;51.556;5.080;2023-09-30T03:45:24;15.40;;;10.30;;
36747;SDS011;22716;51.556;5.080;2023-09-30T03:47:52;16.92;;;10.98;;
36747;SDS011;22716;51.556;5.080;2023-09-30T03:50:21;20.60;;;11.43;;
36747;SDS011;22716;51.556;5.080;2023-09-30T03:52:49;21.70;;;10.68;;
36747;SDS011;22716;51.556;5.080;2023-09-30T03:55:18;12.05;;;9.85;;
36747;SDS011;22716;51.556;5.080;2023-09-30T03:57:48;18.53;;;10.77;;
36747;SDS011;22716;51.556;5.080;2023-09-30T04:00:20;17.47;;;11.17;;
36747;SDS011;22716;51.556;5.080;2023-09-30T04:02:50;18.35;;;11.25;;
36747;SDS011;22716;51.556;5.080;2023-09-30T04:05:23;12.23;;;9.90;;
36747;SDS011;22716;51.556;5.080;2023-09-30T04:07:55;18.37;;;10.00;;
36747;SDS011;22716;51.556;5.080;2023-09-30T04:10:24;18.40;;;9.67;;
36747;SDS011;22716;51.556;5.080;2023-09-30T04:12:52;19.57;;;11.20;;
36747;SDS011;22716;51.556;5.080;2023-09-30T04:15:24;19.03;;;10.93;;
36747;SDS011;22716;51.556;5.080;2023-09-30T04:17:52;19.37;;;12.03;;
36747;SDS011;22716;51.556;5.080;2023-09-30T04:20:21;15.43;;;10.67;;
36747;SDS011;22716;51.556;5.080;2023-09-30T04:22:52;23.38;;;11.80;;
36747;SDS011;22716;51.556;5.080;2023-09-30T04:25:22;22.60;;;11.45;;
36747;SDS011;22716;51.556;5.080;2023-09-30T04:27:52;14.90;;;10.93;;
36747;SDS011;22716;51.556;5.080;2023-09-30T04:30:21;16.57;;;9.83;;
36747;SDS011;22716;51.556;5.080;2023-09-30T04:32:52;16.73;;;10.40;;
36747;SDS011;22716;51.556;5.080;2023-09-30T04:35:22;19.80;;;12.10;;
36747;SDS011;22716;51.556;5.080;2023-09-30T04:37:52;19.93;;;11.00;;
36747;SDS011;22716;51.556;5.080;2023-09-30T04:40:20;17.67;;;10.57;;
36747;SDS011;22716;51.556;5.080;2023-09-30T04:42:49;19.27;;;10.83;;
36747;SDS011;22716;51.556;5.080;2023-09-30T04:45:19;17.65;;;11.43;;
36747;SDS011;22716;51.556;5.080;2023-09-30T04:47:52;20.98;;;10.65;;
36747;SDS011;22716;51.556;5.080;2023-09-30T04:50:21;20.53;;;10.97;;
36747;SDS011;22716;51.556;5.080;2023-09-30T04:52:50;20.27;;;10.77;;
36747;SDS011;22716;51.556;5.080;2023-09-30T04:55:19;26.08;;;11.27;;
36747;SDS011;22716;51.556;5.080;2023-09-30T04:57:48;18.17;;;10.82;;
36747;SDS011;22716;51.556;5.080;2023-09-30T05:00:18;17.93;;;11.53;;
36747;SDS011;22716;51.556;5.080;2023-09-30T05:02:54;17.47;;;12.00;;
36747;SDS011;22716;51.556;5.080;2023-09-30T05:05:24;17.40;;;11.45;;
36747;SDS011;22716;51.556;5.080;2023-09-30T05:07:54;19.30;;;10.47;;
36747;SDS011;22716;51.556;5.080;2023-09-30T05:10:23;18.27;;;11.70;;
36747;SDS011;22716;51.556;5.080;2023-09-30T05:12:52;22.53;;;13.00;;
36747;SDS011;22716;51.556;5.080;2023-09-30T05:15:22;18.80;;;10.63;;
36747;SDS011;22716;51.556;5.080;2023-09-30T05:17:53;18.80;;;11.57;;
36747;SDS011;22716;51.556;5.080;2023-09-30T05:20:22;15.20;;;10.37;;
36747;SDS011;22716;51.556;5.080;2023-09-30T05:22:51;19.53;;;11.03;;
36747;SDS011;22716;51.556;5.080;2023-09-30T05:25:19;23.33;;;12.60;;
36747;SDS011;22716;51.556;5.080;2023-09-30T05:27:51;21.52;;;12.18;;
36747;SDS011;22716;51.556;5.080;2023-09-30T05:30:20;23.77;;;11.97;;
36747;SDS011;22716;51.556;5.080;2023-09-30T05:32:48;24.70;;;13.20;;
36747;SDS011;22716;51.556;5.080;2023-09-30T05:35:20;25.37;;;11.57;;
36747;SDS011;22716;51.556;5.080;2023-09-30T05:37:49;22.73;;;13.03;;
36747;SDS011;22716;51.556;5.080;2023-09-30T05:40:19;21.07;;;11.77;;
36747;SDS011;22716;51.556;5.080;2023-09-30T05:42:51;24.63;;;11.83;;
36747;SDS011;22716;51.556;5.080;2023-09-30T05:45:23;21.43;;;11.67;;
36747;SDS011;22716;51.556;5.080;2023-09-30T05:47:52;16.93;;;12.50;;
36747;SDS011;22716;51.556;5.080;2023-09-30T05:50:25;20.50;;;12.63;;
36747;SDS011;22716;51.556;5.080;2023-09-30T05:52:53;18.15;;;12.40;;
36747;SDS011;22716;51.556;5.080;2023-09-30T05:55:23;17.43;;;10.57;;
36747;SDS011;22716;51.556;5.080;2023-09-30T05:57:53;19.70;;;11.60;;
36747;SDS011;22716;51.556;5.080;2023-09-30T06:00:22;18.77;;;10.80;;
36747;SDS011;22716;51.556;5.080;2023-09-30T06:02:53;20.38;;;13.93;;
36747;SDS011;22716;51.556;5.080;2023-09-30T06:05:25;24.03;;;15.23;;
36747;SDS011;22716;51.556;5.080;2023-09-30T06:07:55;23.10;;;12.30;;
36747;SDS011;22716;51.556;5.080;2023-09-30T06:10:24;21.63;;;11.75;;
36747;SDS011;22716;51.556;5.080;2023-09-30T06:12:53;20.30;;;11.20;;
36747;SDS011;22716;51.556;5.080;2023-09-30T06:15:24;20.08;;;12.50;;
36747;SDS011;22716;51.556;5.080;2023-09-30T06:17:54;32.97;;;11.70;;
36747;SDS011;22716;51.556;5.080;2023-09-30T06:20:28;21.93;;;11.23;;
36747;SDS011;22716;51.556;5.080;2023-09-30T06:22:56;29.08;;;13.73;;
36747;SDS011;22716;51.556;5.080;2023-09-30T06:25:26;27.80;;;17.73;;
36747;SDS011;22716;51.556;5.080;2023-09-30T06:27:55;18.23;;;13.00;;
36747;SDS011;22716;51.556;5.080;2023-09-30T06:30:24;20.57;;;12.27;;
36747;SDS011;22716;51.556;5.080;2023-09-30T06:32:55;22.63;;;12.15;;
36747;SDS011;22716;51.556;5.080;2023-09-30T06:35:27;17.37;;;12.43;;
36747;SDS011;22716;51.556;5.080;2023-09-30T06:38:02;18.63;;;12.98;;
36747;SDS011;22716;51.556;5.080;2023-09-30T06:40:33;23.63;;;13.25;;
36747;SDS011;22716;51.556;5.080;2023-09-30T06:43:03;23.53;;;15.03;;
36747;SDS011;22716;51.556;5.080;2023-09-30T06:45:33;29.27;;;14.95;;
36747;SDS011;22716;51.556;5.080;2023-09-30T06:48:06;32.37;;;16.73;;
36747;SDS011;22716;51.556;5.080;2023-09-30T06:50:43;30.40;;;17.00;;
36747;SDS011;22716;51.556;5.080;2023-09-30T06:53:13;28.37;;;16.47;;
36747;SDS011;22716;51.556;5.080;2023-09-30T06:55:42;27.92;;;17.40;;
36747;SDS011;22716;51.556;5.080;2023-09-30T06:58:11;33.53;;;18.57;;
36747;SDS011;22716;51.556;5.080;2023-09-30T07:00:44;24.50;;;16.67;;
36747;SDS011;22716;51.556;5.080;2023-09-30T07:03:14;35.63;;;18.87;;
36747;SDS011;22716;51.556;5.080;2023-09-30T07:05:47;26.90;;;17.43;;
36747;SDS011;22716;51.556;5.080;2023-09-30T07:08:19;32.40;;;19.70;;
36747;SDS011;22716;51.556;5.080;2023-09-30T07:10:48;32.67;;;18.52;;
36747;SDS011;22716;51.556;5.080;2023-09-30T07:13:18;37.13;;;20.13;;
36747;SDS011;22716;51.556;5.080;2023-09-30T07:15:46;34.20;;;18.10;;
36747;SDS011;22716;51.556;5.080;2023-09-30T07:18:16;37.65;;;18.92;;
36747;SDS011;22716;51.556;5.080;2023-09-30T07:20:48;33.90;;;18.42;;
36747;SDS011;22716;51.556;5.080;2023-09-30T07:23:17;32.30;;;17.23;;
36747;SDS011;22716;51.556;5.080;2023-09-30T07:25:45;28.33;;;17.17;;
36747;SDS011;22716;51.556;5.080;2023-09-30T07:28:14;27.90;;;15.90;;
36747;SDS011;22716;51.556;5.080;2023-09-30T07:30:43;24.00;;;15.53;;
36747;SDS011;22716;51.556;5.080;2023-09-30T07:33:12;24.23;;;14.70;;
36747;SDS011;22716;51.556;5.080;2023-09-30T07:35:41;27.90;;;15.70;;
36747;SDS011;22716;51.556;5.080;2023-09-30T07:38:12;21.37;;;13.87;;
36747;SDS011;22716;51.556;5.080;2023-09-30T07:40:41;26.00;;;14.60;;
36747;SDS011;22716;51.556;5.080;2023-09-30T07:43:10;28.53;;;16.07;;
36747;SDS011;22716;51.556;5.080;2023-09-30T07:45:39;23.67;;;14.63;;
36747;SDS011;22716;51.556;5.080;2023-09-30T07:48:09;28.03;;;15.30;;
36747;SDS011;22716;51.556;5.080;2023-09-30T07:50:39;28.67;;;16.87;;
36747;SDS011;22716;51.556;5.080;2023-09-30T07:53:08;30.27;;;16.77;;
36747;SDS011;22716;51.556;5.080;2023-09-30T07:55:40;29.60;;;16.60;;
36747;SDS011;22716;51.556;5.080;2023-09-30T07:58:08;33.63;;;17.00;;
36747;SDS011;22716;51.556;5.080;2023-09-30T08:00:37;33.13;;;16.27;;
36747;SDS011;22716;51.556;5.080;2023-09-30T08:03:05;30.20;;;18.37;;
36747;SDS011;22716;51.556;5.080;2023-09-30T08:05:34;34.70;;;19.15;;
36747;SDS011;22716;51.556;5.080;2023-09-30T08:08:03;35.67;;;18.30;;
36747;SDS011;22716;51.556;5.080;2023-09-30T08:10:32;35.25;;;19.33;;
36747;SDS011;22716;51.556;5.080;2023-09-30T08:13:04;35.50;;;18.93;;
36747;SDS011;22716;51.556;5.080;2023-09-30T08:15:33;34.77;;;19.17;;
36747;SDS011;22716;51.556;5.080;2023-09-30T08:18:03;39.47;;;19.93;;
36747;SDS011;22716;51.556;5.080;2023-09-30T08:20:33;43.13;;;21.73;;
36747;SDS011;22716;51.556;5.080;2023-09-30T08:23:02;43.83;;;23.43;;
36747;SDS011;22716;51.556;5.080;2023-09-30T08:25:31;54.50;;;24.17;;
36747;SDS011;22716;51.556;5.080;2023-09-30T08:28:00;44.05;;;26.42;;
36747;SDS011;22716;51.556;5.080;2023-09-30T08:30:32;41.90;;;22.97;;
36747;SDS011;22716;51.556;5.080;2023-09-30T08:33:01;41.60;;;22.93;;
36747;SDS011;22716;51.556;5.080;2023-09-30T08:35:35;46.23;;;23.90;;
36747;SDS011;22716;51.556;5.080;2023-09-30T08:38:04;39.30;;;21.23;;
36747;SDS011;22716;51.556;5.080;2023-09-30T08:40:32;45.93;;;24.63;;
36747;SDS011;22716;51.556;5.080;2023-09-30T08:43:01;53.07;;;25.67;;
36747;SDS011;22716;51.556;5.080;2023-09-30T08:45:34;51.50;;;24.43;;
36747;SDS011;22716;51.556;5.080;2023-09-30T08:48:07;46.97;;;24.60;;
36747;SDS011;22716;51.556;5.080;2023-09-30T08:50:37;49.92;;;25.00;;
36747;SDS011;22716;51.556;5.080;2023-09-30T08:53:09;49.43;;;26.60;;
36747;SDS011;22716;51.556;5.080;2023-09-30T08:55:39;50.43;;;25.63;;
36747;SDS011;22716;51.556;5.080;2023-09-30T08:58:10;49.07;;;26.17;;
36747;SDS011;22716;51.556;5.080;2023-09-30T09:00:43;57.38;;;27.70;;
36747;SDS011;22716;51.556;5.080;2023-09-30T09:03:12;57.97;;;29.70;;
36747;SDS011;22716;51.556;5.080;2023-09-30T09:05:41;54.37;;;27.47;;
36747;SDS011;22716;51.556;5.080;2023-09-30T09:08:10;55.47;;;30.10;;
36747;SDS011;22716;51.556;5.080;2023-09-30T09:10:45;60.23;;;30.60;;
36747;SDS011;22716;51.556;5.080;2023-09-30T09:13:22;54.90;;;28.40;;
36747;SDS011;22716;51.556;5.080;2023-09-30T09:18:38;58.40;;;27.67;;
36747;SDS011;22716;51.556;5.080;2023-09-30T09:21:07;51.67;;;26.30;;
36747;SDS011;22716;51.556;5.080;2023-09-30T09:23:41;50.42;;;26.70;;
36747;SDS011;22716;51.556;5.080;2023-09-30T09:26:11;58.77;;;27.10;;
36747;SDS011;22716;51.556;5.080;2023-09-30T09:28:40;53.03;;;27.37;;
36747;SDS011;22716;51.556;5.080;2023-09-30T09:31:21;52.83;;;31.10;;
36747;SDS011;22716;51.556;5.080;2023-09-30T09:33:51;50.27;;;27.87;;
36747;SDS011;22716;51.556;5.080;2023-09-30T09:36:20;53.60;;;28.20;;
36747;SDS011;22716;51.556;5.080;2023-09-30T09:38:49;50.20;;;26.67;;
36747;SDS011;22716;51.556;5.080;2023-09-30T09:41:19;47.07;;;24.70;;
36747;SDS011;22716;51.556;5.080;2023-09-30T09:43:49;50.50;;;28.13;;
36747;SDS011;22716;51.556;5.080;2023-09-30T09:46:21;50.72;;;27.75;;
36747;SDS011;22716;51.556;5.080;2023-09-30T09:48:51;56.17;;;29.23;;
36747;SDS011;22716;51.556;5.080;2023-09-30T09:51:22;51.80;;;28.53;;
36747;SDS011;22716;51.556;5.080;2023-09-30T09:53:52;53.37;;;27.80;;
36747;SDS011;22716;51.556;5.080;2023-09-30T09:56:21;54.10;;;27.83;;
36747;SDS011;22716;51.556;5.080;2023-09-30T09:58:50;48.83;;;26.17;;
36747;SDS011;22716;51.556;5.080;2023-09-30T10:01:22;55.20;;;28.40;;
36747;SDS011;22716;51.556;5.080;2023-09-30T10:03:50;55.03;;;25.00;;
36747;SDS011;22716;51.556;5.080;2023-09-30T10:06:19;48.40;;;24.73;;
36747;SDS011;22716;51.556;5.080;2023-09-30T10:08:48;53.73;;;27.80;;
36747;SDS011;22716;51.556;5.080;2023-09-30T10:11:20;51.50;;;25.97;;
36747;SDS011;22716;51.556;5.080;2023-09-30T10:13:52;46.72;;;24.10;;
36747;SDS011;22716;51.556;5.080;2023-09-30T10:19:20;42.05;;;24.77;;
36747;SDS011;22716;51.556;5.080;2023-09-30T10:24:50;43.30;;;23.77;;
36747;SDS011;22716;51.556;5.080;2023-09-30T10:27:33;33.93;;;20.13;;
36747;SDS011;22716;51.556;5.080;2023-09-30T10:30:09;38.65;;;20.00;;
36747;SDS011;22716;51.556;5.080;2023-09-30T10:35:43;27.30;;;18.13;;
36747;SDS011;22716;51.556;5.080;2023-09-30T10:41:08;32.63;;;13.98;;
36747;SDS011;22716;51.556;5.080;2023-09-30T10:43:38;32.17;;;16.87;;
36747;SDS011;22716;51.556;5.080;2023-09-30T10:49:18;22.98;;;13.65;;
36747;SDS011;22716;51.556;5.080;2023-09-30T10:52:04;21.33;;;13.10;;
36747;SDS011;22716;51.556;5.080;2023-09-30T10:54:32;20.33;;;13.97;;
36747;SDS011;22716;51.556;5.080;2023-09-30T10:57:01;23.93;;;12.40;;
36747;SDS011;22716;51.556;5.080;2023-09-30T10:59:31;16.00;;;10.63;;
36747;SDS011;22716;51.556;5.080;2023-09-30T11:02:00;20.65;;;10.60;;
36747;SDS011;22716;51.556;5.080;2023-09-30T11:04:32;17.35;;;8.45;;
36747;SDS011;22716;51.556;5.080;2023-09-30T11:09:47;30.90;;;9.13;;
36747;SDS011;22716;51.556;5.080;2023-09-30T11:12:16;16.70;;;8.45;;
36747;SDS011;22716;51.556;5.080;2023-09-30T11:14:44;16.92;;;7.80;;
36747;SDS011;22716;51.556;5.080;2023-09-30T11:17:13;15.85;;;8.52;;
36747;SDS011;22716;51.556;5.080;2023-09-30T11:19:48;14.77;;;6.90;;
36747;SDS011;22716;51.556;5.080;2023-09-30T11:22:17;14.35;;;6.13;;
36747;SDS011;22716;51.556;5.080;2023-09-30T11:24:46;10.53;;;6.00;;
36747;SDS011;22716;51.556;5.080;2023-09-30T11:27:22;15.02;;;7.47;;
36747;SDS011;22716;51.556;5.080;2023-09-30T11:29:52;14.77;;;6.20;;
36747;SDS011;22716;51.556;5.080;2023-09-30T11:32:24;14.23;;;6.38;;
36747;SDS011;22716;51.556;5.080;2023-09-30T11:34:56;13.57;;;5.90;;
36747;SDS011;22716;51.556;5.080;2023-09-30T11:37:30;15.57;;;7.07;;
36747;SDS011;22716;51.556;5.080;2023-09-30T11:40:08;13.88;;;6.15;;
36747;SDS011;22716;51.556;5.080;2023-09-30T11:42:38;12.20;;;5.50;;
36747;SDS011;22716;51.556;5.080;2023-09-30T11:45:19;16.02;;;5.68;;
36747;SDS011;22716;51.556;5.080;2023-09-30T11:47:48;14.45;;;4.65;;
36747;SDS011;22716;51.556;5.080;2023-09-30T11:50:21;9.75;;;4.55;;
36747;SDS011;22716;51.556;5.080;2023-09-30T11:52:50;11.80;;;4.32;;
36747;SDS011;22716;51.556;5.080;2023-09-30T11:55:19;13.68;;;5.05;;
36747;SDS011;22716;51.556;5.080;2023-09-30T11:57:48;14.48;;;5.43;;
36747;SDS011;22716;51.556;5.080;2023-09-30T12:00:20;12.30;;;6.05;;
36747;SDS011;22716;51.556;5.080;2023-09-30T12:02:49;13.07;;;6.85;;
36747;SDS011;22716;51.556;5.080;2023-09-30T12:05:23;10.90;;;4.13;;
36747;SDS011;22716;51.556;5.080;2023-09-30T12:07:52;12.18;;;4.53;;
36747;SDS011;22716;51.556;5.080;2023-09-30T12:10:20;9.48;;;4.18;;
36747;SDS011;22716;51.556;5.080;2023-09-30T12:12:49;12.10;;;4.72;;
36747;SDS011;22716;51.556;5.080;2023-09-30T12:15:18;12.43;;;4.13;;
36747;SDS011;22716;51.556;5.080;2023-09-30T12:17:47;14.95;;;5.45;;
36747;SDS011;22716;51.556;5.080;2023-09-30T12:20:16;8.48;;;3.50;;
36747;SDS011;22716;51.556;5.080;2023-09-30T12:22:47;9.88;;;4.82;;
36747;SDS011;22716;51.556;5.080;2023-09-30T12:25:17;11.20;;;4.47;;
36747;SDS011;22716;51.556;5.080;2023-09-30T12:27:46;11.73;;;3.95;;
36747;SDS011;22716;51.556;5.080;2023-09-30T12:30:16;6.60;;;3.45;;
36747;SDS011;22716;51.556;5.080;2023-09-30T12:32:45;13.33;;;5.53;;
36747;SDS011;22716;51.556;5.080;2023-09-30T12:35:14;10.75;;;3.88;;
36747;SDS011;22716;51.556;5.080;2023-09-30T12:37:42;8.32;;;3.80;;
36747;SDS011;22716;51.556;5.080;2023-09-30T12:40:14;9.60;;;3.65;;
36747;SDS011;22716;51.556;5.080;2023-09-30T12:42:43;12.27;;;4.50;;
36747;SDS011;22716;51.556;5.080;2023-09-30T12:45:12;16.73;;;6.00;;
36747;SDS011;22716;51.556;5.080;2023-09-30T12:47:43;27.88;;;12.80;;
36747;SDS011;22716;51.556;5.080;2023-09-30T12:50:12;11.60;;;4.88;;
36747;SDS011;22716;51.556;5.080;2023-09-30T12:52:41;10.07;;;4.85;;
36747;SDS011;22716;51.556;5.080;2023-09-30T12:55:09;9.80;;;3.58;;
36747;SDS011;22716;51.556;5.080;2023-09-30T12:57:41;19.77;;;7.18;;
36747;SDS011;22716;51.556;5.080;2023-09-30T13:00:10;16.45;;;6.22;;
36747;SDS011;22716;51.556;5.080;2023-09-30T13:02:41;33.10;;;11.63;;
36747;SDS011;22716;51.556;5.080;2023-09-30T13:05:09;35.42;;;12.98;;
36747;SDS011;22716;51.556;5.080;2023-09-30T13:07:38;15.30;;;5.33;;
36747;SDS011;22716;51.556;5.080;2023-09-30T13:10:08;28.37;;;10.53;;
36747;SDS011;22716;51.556;5.080;2023-09-30T13:12:41;55.50;;;20.92;;
36747;SDS011;22716;51.556;5.080;2023-09-30T13:15:10;13.70;;;6.15;;
36747;SDS011;22716;51.556;5.080;2023-09-30T13:17:39;17.13;;;6.47;;
36747;SDS011;22716;51.556;5.080;2023-09-30T13:20:08;11.13;;;4.23;;
36747;SDS011;22716;51.556;5.080;2023-09-30T13:22:38;12.57;;;4.10;;
36747;SDS011;22716;51.556;5.080;2023-09-30T13:25:08;17.20;;;4.25;;
36747;SDS011;22716;51.556;5.080;2023-09-30T13:27:37;9.70;;;4.87;;
36747;SDS011;22716;51.556;5.080;2023-09-30T13:30:10;29.17;;;11.15;;
36747;SDS011;22716;51.556;5.080;2023-09-30T13:32:39;17.35;;;6.78;;
36747;SDS011;22716;51.556;5.080;2023-09-30T13:35:07;10.88;;;3.85;;
36747;SDS011;22716;51.556;5.080;2023-09-30T13:37:36;13.55;;;4.47;;
36747;SDS011;22716;51.556;5.080;2023-09-30T13:40:05;10.27;;;3.50;;
36747;SDS011;22716;51.556;5.080;2023-09-30T13:42:38;6.53;;;3.15;;
36747;SDS011;22716;51.556;5.080;2023-09-30T13:45:11;11.80;;;3.83;;
36747;SDS011;22716;51.556;5.080;2023-09-30T13:47:42;14.82;;;3.38;;
36747;SDS011;22716;51.556;5.080;2023-09-30T13:50:11;10.07;;;3.65;;
36747;SDS011;22716;51.556;5.080;2023-09-30T13:52:39;8.70;;;3.43;;
36747;SDS011;22716;51.556;5.080;2023-09-30T13:55:08;15.82;;;6.47;;
36747;SDS011;22716;51.556;5.080;2023-09-30T13:57:38;21.48;;;5.03;;
36747;SDS011;22716;51.556;5.080;2023-09-30T14:00:10;8.57;;;3.57;;
36747;SDS011;22716;51.556;5.080;2023-09-30T14:02:40;9.25;;;4.13;;
36747;SDS011;22716;51.556;5.080;2023-09-30T14:05:09;7.80;;;3.25;;
36747;SDS011;22716;51.556;5.080;2023-09-30T14:07:39;8.70;;;4.07;;
36747;SDS011;22716;51.556;5.080;2023-09-30T14:10:08;8.65;;;3.60;;
36747;SDS011;22716;51.556;5.080;2023-09-30T14:12:38;25.95;;;10.77;;
36747;SDS011;22716;51.556;5.080;2023-09-30T14:15:11;18.25;;;6.75;;
36747;SDS011;22716;51.556;5.080;2023-09-30T14:17:40;10.03;;;4.03;;
36747;SDS011;22716;51.556;5.080;2023-09-30T14:20:10;10.05;;;4.47;;
36747;SDS011;22716;51.556;5.080;2023-09-30T14:22:39;9.40;;;4.00;;
36747;SDS011;22716;51.556;5.080;2023-09-30T14:25:08;10.38;;;3.13;;
36747;SDS011;22716;51.556;5.080;2023-09-30T14:27:37;13.73;;;3.70;;
36747;SDS011;22716;51.556;5.080;2023-09-30T14:30:06;12.17;;;3.47;;
36747;SDS011;22716;51.556;5.080;2023-09-30T14:32:38;9.53;;;3.20;;
36747;SDS011;22716;51.556;5.080;2023-09-30T14:35:07;17.90;;;4.60;;
36747;SDS011;22716;51.556;5.080;2023-09-30T14:37:36;8.82;;;2.78;;
36747;SDS011;22716;51.556;5.080;2023-09-30T14:40:06;9.47;;;3.37;;
36747;SDS011;22716;51.556;5.080;2023-09-30T14:42:36;8.23;;;3.80;;
36747;SDS011;22716;51.556;5.080;2023-09-30T14:45:05;7.80;;;3.50;;
36747;SDS011;22716;51.556;5.080;2023-09-30T14:47:38;21.90;;;5.10;;
36747;SDS011;22716;51.556;5.080;2023-09-30T14:50:08;11.83;;;4.20;;
36747;SDS011;22716;51.556;5.080;2023-09-30T14:52:37;13.43;;;3.95;;
36747;SDS011;22716;51.556;5.080;2023-09-30T14:55:06;13.03;;;4.60;;
36747;SDS011;22716;51.556;5.080;2023-09-30T14:57:35;10.63;;;3.43;;
36747;SDS011;22716;51.556;5.080;2023-09-30T15:00:04;17.70;;;6.53;;
36747;SDS011;22716;51.556;5.080;2023-09-30T15:02:39;14.50;;;4.80;;
36747;SDS011;22716;51.556;5.080;2023-09-30T15:05:07;21.10;;;7.73;;